Cumberland Heights, Illinois
Current Conditions -  °F | °C
As of 9:55 PM on Wednesday 17 Dec 2014 (Local Time) from KFWC Reporting Station
Clear Clear  
Wind Chill: 23°   Ceiling: Unl
Heat Index: 29°   Visibility: 10mi
Dew Point: 25°   Wind: 5mph
Humidity: 88%   Direction: 20°NNE
Pressure: 30.28"   Gusts: NA
Location:  38.3669°N, 88.3516°W
Report Text: KFWC 180355Z AUTO 02004KT 10SM CLR M02/M04 A3028 RMK AO1 T10191037
Loading
Personal Weather Stations






























Interactive Weather Map New forecast layout! Learn more

10-Day Weather Forecast

Advertisements
Track Severe Weather on mobile